createdAt,value
2022-12-09T00:01:38.985Z,5.99
2022-12-09T00:04:41.907Z,5.51
2022-12-09T00:07:45.287Z,5.11
2022-12-09T00:10:48.303Z,4.84
2022-12-09T00:13:53.806Z,4.76
2022-12-09T00:16:56.608Z,4.61
2022-12-09T00:19:59.651Z,4.49
2022-12-09T00:23:02.703Z,4.38
2022-12-09T00:26:05.624Z,4.29
2022-12-09T00:29:08.636Z,4.30
2022-12-09T00:32:11.552Z,4.19
2022-12-09T00:35:14.346Z,4.11
2022-12-09T00:38:17.141Z,4.11
2022-12-09T00:41:19.953Z,4.74
2022-12-09T00:44:22.972Z,5.32
2022-12-09T00:47:25.975Z,5.79
2022-12-09T00:50:28.790Z,6.29
2022-12-09T00:53:32.028Z,7.31
2022-12-09T00:56:34.799Z,8.13
2022-12-09T00:59:37.567Z,8.17
2022-12-09T01:02:40.684Z,7.06
2022-12-09T01:05:44.527Z,6.02
2022-12-09T01:08:47.883Z,5.29
2022-12-09T01:11:51.080Z,5.10
2022-12-09T01:14:54.089Z,5.48
2022-12-09T01:17:57.262Z,5.55
2022-12-09T01:21:00.031Z,5.48
2022-12-09T01:24:08.677Z,6.03
2022-12-09T01:27:11.661Z,6.39
2022-12-09T01:30:15.377Z,6.31
2022-12-09T01:33:18.158Z,6.42
2022-12-09T01:36:24.791Z,7.17
2022-12-09T01:39:27.833Z,7.88
2022-12-09T01:42:30.690Z,8.02
2022-12-09T01:45:40.872Z,7.96
2022-12-09T01:48:46.518Z,7.24
2022-12-09T01:52:02.115Z,5.94
2022-12-09T01:55:06.928Z,5.46
2022-12-09T01:58:10.481Z,7.25
2022-12-09T02:01:14.445Z,8.22
2022-12-09T02:04:17.371Z,8.44
2022-12-09T02:07:21.136Z,7.45
2022-12-09T02:10:24.769Z,5.90
2022-12-09T02:14:05.132Z,5.79
2022-12-09T02:17:36.058Z,6.67
2022-12-09T02:20:43.533Z,6.97
2022-12-09T02:23:59.441Z,7.42
2022-12-09T02:27:33.048Z,7.92
2022-12-09T02:30:52.959Z,7.97
2022-12-09T02:34:19.067Z,7.65
2022-12-09T02:37:50.077Z,6.19
2022-12-09T02:40:59.489Z,5.17
2022-12-09T02:44:11.756Z,6.68
2022-12-09T02:47:24.512Z,8.13
2022-12-09T02:50:32.717Z,8.90
2022-12-09T02:53:37.451Z,8.70
2022-12-09T02:56:44.029Z,7.07
2022-12-09T02:59:46.908Z,5.69
2022-12-09T03:02:53.447Z,5.83
2022-12-09T03:06:07.221Z,7.29
2022-12-09T03:09:14.492Z,8.72
2022-12-09T03:12:20.173Z,9.18
2022-12-09T03:15:28.166Z,7.60
2022-12-09T03:18:33.486Z,6.07
2022-12-09T03:21:42.790Z,5.32
2022-12-09T03:25:15.156Z,6.89
2022-12-09T03:28:24.006Z,8.66
2022-12-09T03:31:30.924Z,8.51
2022-12-09T03:34:38.967Z,7.03
2022-12-09T03:37:44.170Z,5.80
2022-12-09T03:40:52.530Z,5.41
2022-12-09T03:44:21.373Z,7.16
2022-12-09T03:47:24.475Z,8.07
2022-12-09T03:50:32.195Z,8.29
2022-12-09T03:53:47.564Z,7.79
2022-12-09T03:56:54.900Z,6.60
2022-12-09T04:00:01.716Z,5.72
2022-12-09T04:03:06.539Z,5.62
2022-12-09T04:06:09.547Z,7.07
2022-12-09T04:09:13.212Z,8.11
2022-12-09T04:12:16.335Z,8.49
2022-12-09T04:15:19.431Z,7.61
2022-12-09T04:18:22.455Z,6.53
2022-12-09T04:21:25.558Z,5.77
2022-12-09T04:24:28.323Z,5.64
2022-12-09T04:27:31.343Z,7.33
2022-12-09T04:30:34.313Z,8.33
2022-12-09T04:33:37.550Z,8.30
2022-12-09T04:36:40.322Z,7.17
2022-12-09T04:39:43.106Z,6.13
2022-12-09T04:42:46.782Z,5.35
2022-12-09T04:45:50.017Z,5.27
2022-12-09T04:48:53.315Z,6.65
2022-12-09T04:51:56.258Z,7.60
2022-12-09T04:54:59.240Z,7.82
2022-12-09T04:58:02.073Z,8.02
2022-12-09T05:01:09.795Z,7.91
2022-12-09T05:04:12.989Z,6.89
2022-12-09T05:07:16.452Z,5.90
2022-12-09T05:10:19.664Z,5.63
2022-12-09T05:13:23.135Z,6.04
2022-12-09T05:16:26.352Z,6.16
2022-12-09T05:19:29.614Z,7.32
2022-12-09T05:22:33.020Z,8.82
2022-12-09T05:25:36.725Z,8.61
2022-12-09T05:28:40.210Z,7.19
2022-12-09T05:31:43.372Z,6.15
2022-12-09T05:34:46.325Z,5.44
2022-12-09T05:37:49.175Z,5.23
2022-12-09T05:40:52.705Z,6.12
2022-12-09T05:43:56.615Z,6.61
2022-12-09T05:46:59.666Z,7.77
2022-12-09T05:50:07.871Z,8.44
2022-12-09T05:53:11.704Z,8.22
2022-12-09T05:56:17.055Z,6.82
2022-12-09T05:59:20.046Z,5.66
2022-12-09T06:02:23.340Z,5.17
2022-12-09T06:05:26.398Z,5.62
2022-12-09T06:08:29.792Z,6.70
2022-12-09T06:11:33.343Z,8.24
2022-12-09T06:14:36.571Z,8.78
2022-12-09T06:17:39.533Z,7.67
2022-12-09T06:20:42.603Z,6.46
2022-12-09T06:23:45.654Z,5.91
2022-12-09T06:26:49.407Z,7.32
2022-12-09T06:29:52.374Z,8.70
2022-12-09T06:32:55.599Z,7.91
2022-12-09T06:36:03.468Z,6.66
2022-12-09T06:39:10.509Z,5.67
2022-12-09T06:42:14.428Z,5.23
2022-12-09T06:45:19.152Z,5.68
2022-12-09T06:48:22.305Z,6.40
2022-12-09T06:51:26.184Z,6.98
2022-12-09T06:54:29.047Z,7.51
2022-12-09T06:57:32.275Z,8.74
2022-12-09T07:00:35.449Z,9.35
2022-12-09T07:03:38.501Z,8.05
2022-12-09T07:06:44.355Z,6.82
2022-12-09T07:09:48.103Z,5.92
2022-12-09T07:12:51.358Z,6.01
2022-12-09T07:15:54.618Z,8.27
2022-12-09T07:18:58.168Z,9.33
2022-12-09T07:22:01.284Z,8.11
2022-12-09T07:25:06.089Z,6.87
2022-12-09T07:28:09.663Z,6.01
2022-12-09T07:31:21.618Z,6.08
2022-12-09T07:34:25.114Z,8.31
2022-12-09T07:37:28.342Z,9.60
2022-12-09T07:40:31.508Z,8.75
2022-12-09T07:43:36.022Z,7.46
2022-12-09T07:46:39.906Z,6.55
2022-12-09T07:49:43.745Z,5.79
2022-12-09T07:52:46.897Z,5.84
2022-12-09T07:55:49.650Z,7.81
2022-12-09T07:58:54.195Z,9.09
2022-12-09T08:02:02.533Z,9.09
2022-12-09T08:05:09.242Z,7.71
2022-12-09T08:08:12.901Z,6.71
2022-12-09T08:11:22.304Z,6.05
2022-12-09T08:14:25.342Z,6.26
2022-12-09T08:17:29.818Z,8.34
2022-12-09T08:20:33.592Z,9.43
2022-12-09T08:23:37.339Z,9.83
2022-12-09T08:26:41.212Z,8.73
2022-12-09T08:29:44.383Z,7.61
2022-12-09T08:32:47.882Z,6.76
2022-12-09T08:35:51.771Z,6.63
2022-12-09T08:38:56.146Z,8.48
2022-12-09T08:41:59.465Z,9.46
2022-12-09T08:45:03.266Z,9.32
2022-12-09T08:48:07.884Z,8.10
2022-12-09T08:51:12.358Z,6.99
2022-12-09T08:54:15.894Z,7.43
2022-12-09T08:57:24.248Z,8.52
2022-12-09T09:00:27.119Z,9.45
2022-12-09T09:03:30.450Z,8.36
2022-12-09T09:06:34.189Z,7.28
2022-12-09T09:09:37.995Z,6.87
2022-12-09T09:12:43.832Z,8.61
2022-12-09T09:15:48.073Z,9.42
2022-12-09T09:18:51.667Z,8.08
2022-12-09T09:21:56.089Z,6.85
2022-12-09T09:24:59.029Z,6.72
2022-12-09T09:28:02.207Z,6.96
2022-12-09T09:31:07.515Z,6.94
2022-12-09T09:34:11.333Z,8.14
2022-12-09T09:37:14.624Z,9.36
2022-12-09T09:40:18.061Z,8.49
2022-12-09T09:43:25.808Z,7.16
2022-12-09T09:46:39.816Z,6.38
2022-12-09T09:49:46.238Z,6.82
2022-12-09T09:52:50.040Z,6.93
2022-12-09T09:56:07.301Z,6.94
2022-12-09T09:59:37.499Z,7.31
2022-12-09T10:03:25.574Z,7.91
2022-12-09T10:06:55.476Z,8.62
2022-12-09T10:10:20.693Z,9.37
2022-12-09T10:13:44.229Z,7.79
2022-12-09T10:17:15.857Z,6.51
2022-12-09T10:20:23.468Z,7.38
2022-12-09T10:23:31.397Z,8.38
2022-12-09T10:26:35.304Z,7.96
2022-12-09T10:29:46.436Z,6.83
2022-12-09T10:32:50.203Z,6.67
2022-12-09T10:35:53.494Z,7.56
2022-12-09T10:38:56.822Z,8.16
2022-12-09T10:42:20.194Z,8.36
2022-12-09T10:45:23.128Z,8.24
2022-12-09T10:48:44.801Z,7.21
2022-12-09T10:51:53.352Z,6.24
2022-12-09T10:54:58.117Z,6.28
2022-12-09T10:58:29.709Z,6.94
2022-12-09T11:01:49.651Z,7.36
2022-12-09T11:04:53.488Z,7.75
2022-12-09T11:07:58.685Z,8.20
2022-12-09T11:11:02.764Z,8.61
2022-12-09T11:14:23.098Z,7.50
2022-12-09T11:17:30.845Z,6.52
2022-12-09T11:20:36.482Z,7.04
2022-12-09T11:23:58.870Z,8.54
2022-12-09T11:27:25.136Z,9.34
2022-12-09T11:31:20.045Z,7.82
2022-12-09T11:34:23.343Z,6.36
2022-12-09T11:37:28.729Z,6.01
2022-12-09T11:40:32.831Z,6.03
2022-12-09T11:43:42.936Z,5.93
2022-12-09T11:46:45.743Z,5.78
2022-12-09T11:49:53.247Z,5.71
2022-12-09T11:53:13.137Z,5.81
2022-12-09T11:56:19.896Z,6.86
2022-12-09T11:59:34.765Z,8.13
2022-12-09T12:02:46.090Z,8.06
2022-12-09T12:05:51.784Z,8.17
2022-12-09T12:09:17.209Z,8.02
2022-12-09T12:12:44.172Z,6.69
2022-12-09T12:15:50.783Z,5.67
2022-12-09T12:18:59.731Z,5.30
2022-12-09T12:22:17.450Z,6.40
2022-12-09T12:25:48.010Z,8.57
2022-12-09T12:29:07.777Z,9.00
2022-12-09T12:32:31.937Z,7.33
2022-12-09T12:36:03.130Z,6.02
2022-12-09T12:39:42.239Z,6.78
2022-12-09T12:43:19.307Z,8.17
2022-12-09T12:46:24.941Z,8.21
2022-12-09T12:49:55.528Z,6.92
2022-12-09T12:53:26.180Z,5.99
2022-12-09T12:57:09.651Z,6.38
2022-12-09T13:00:20.890Z,6.75
2022-12-09T13:03:36.785Z,6.85
2022-12-09T13:06:39.507Z,7.06
2022-12-09T13:10:06.062Z,6.94
2022-12-09T13:13:18.990Z,6.84
2022-12-09T13:16:31.794Z,6.77
2022-12-09T13:19:51.365Z,6.52
2022-12-09T13:23:02.677Z,6.13
2022-12-09T13:26:43.328Z,6.21
2022-12-09T13:30:01.271Z,6.45
2022-12-09T13:33:13.293Z,6.49
2022-12-09T13:36:18.836Z,6.29
2022-12-09T13:39:40.097Z,6.46
2022-12-09T13:42:58.933Z,7.69
2022-12-09T13:46:02.571Z,8.52
2022-12-09T13:49:10.932Z,8.02
2022-12-09T13:52:39.984Z,6.72
2022-12-09T13:55:56.159Z,5.59
2022-12-09T13:59:12.770Z,5.01
2022-12-09T14:02:24.718Z,4.64
2022-12-09T14:05:31.504Z,4.36
2022-12-09T14:08:45.890Z,4.09
2022-12-09T14:11:54.195Z,3.88
2022-12-09T14:15:23.447Z,3.82
2022-12-09T14:18:30.526Z,4.09
2022-12-09T14:21:33.659Z,4.00
2022-12-09T14:24:36.866Z,4.37
2022-12-09T14:27:39.703Z,5.56
2022-12-09T14:31:04.845Z,6.22
2022-12-09T14:34:28.649Z,6.44
2022-12-09T14:38:02.258Z,6.94
2022-12-09T14:41:32.739Z,7.10
2022-12-09T14:44:39.555Z,7.10
2022-12-09T14:47:47.816Z,7.02
2022-12-09T14:51:19.949Z,6.84
2022-12-09T14:54:27.891Z,6.59
2022-12-09T14:57:36.838Z,6.38
2022-12-09T15:00:41.679Z,6.59
2022-12-09T15:04:21.217Z,6.78
2022-12-09T15:07:28.979Z,6.65
2022-12-09T15:10:37.818Z,6.62
2022-12-09T15:13:46.898Z,6.45
2022-12-09T15:16:51.061Z,6.09
2022-12-09T15:20:02.020Z,6.23
2022-12-09T15:23:14.801Z,6.45
2022-12-09T15:26:26.188Z,6.44
2022-12-09T15:29:31.401Z,6.50
2022-12-09T15:32:38.931Z,6.32
2022-12-09T15:35:43.674Z,6.15
2022-12-09T15:38:52.967Z,6.42
2022-12-09T15:42:08.324Z,6.93
2022-12-09T15:45:15.926Z,6.35
2022-12-09T15:48:23.933Z,5.77
2022-12-09T15:51:28.861Z,5.45
2022-12-09T15:54:36.294Z,5.43
2022-12-09T15:57:40.256Z,5.56
2022-12-09T16:00:49.119Z,5.58
2022-12-09T16:03:54.593Z,5.65
2022-12-09T16:07:05.608Z,5.83
2022-12-09T16:10:15.553Z,5.77
2022-12-09T16:13:21.348Z,5.85
2022-12-09T16:16:30.073Z,5.82
2022-12-09T16:19:34.595Z,6.06
2022-12-09T16:22:38.127Z,5.96
2022-12-09T16:25:46.235Z,5.85
2022-12-09T16:29:04.146Z,5.74
2022-12-09T16:32:25.130Z,5.84
2022-12-09T16:35:36.261Z,5.91
2022-12-09T16:38:39.051Z,5.97
2022-12-09T16:42:01.790Z,6.31
2022-12-09T16:45:23.464Z,6.75
2022-12-09T16:48:28.108Z,6.86
2022-12-09T16:51:31.343Z,6.67
2022-12-09T16:54:34.207Z,6.52
2022-12-09T16:57:36.991Z,6.38
2022-12-09T17:00:39.943Z,6.29
2022-12-09T17:03:52.632Z,6.29
2022-12-09T17:06:55.311Z,6.40
2022-12-09T17:09:58.231Z,6.37
2022-12-09T17:13:02.870Z,6.42
2022-12-09T17:16:07.205Z,6.33
2022-12-09T17:19:10.198Z,6.13
2022-12-09T17:22:13.000Z,5.59
2022-12-09T17:25:15.759Z,5.20
2022-12-09T17:28:18.557Z,4.95
2022-12-09T17:31:23.758Z,4.99
2022-12-09T17:34:26.703Z,4.80
2022-12-09T17:37:29.467Z,5.07
2022-12-09T17:40:34.916Z,5.16
2022-12-09T17:43:37.867Z,5.31
2022-12-09T17:46:40.685Z,5.35
2022-12-09T17:49:43.431Z,5.34
2022-12-09T17:52:46.251Z,5.26
2022-12-09T17:55:49.123Z,5.36
2022-12-09T17:58:58.622Z,5.27
2022-12-09T18:02:03.770Z,5.40
2022-12-09T18:05:06.830Z,5.32
2022-12-09T18:08:09.651Z,5.22
2022-12-09T18:11:12.524Z,5.02
2022-12-09T18:14:16.306Z,4.86
2022-12-09T18:17:19.145Z,4.89
2022-12-09T18:20:21.901Z,5.39
2022-12-09T18:23:24.675Z,5.83
2022-12-09T18:26:31.353Z,5.79
2022-12-09T18:29:37.458Z,5.78
2022-12-09T18:32:41.017Z,5.93
2022-12-09T18:35:43.807Z,6.38
2022-12-09T18:38:47.451Z,6.46
2022-12-09T18:41:50.255Z,6.32
2022-12-09T18:44:52.975Z,6.06
2022-12-09T18:47:55.716Z,5.67
2022-12-09T18:50:58.679Z,5.52
2022-12-09T18:54:02.857Z,5.71
2022-12-09T18:57:05.760Z,5.95
2022-12-09T19:00:10.347Z,5.76
2022-12-09T19:03:13.294Z,5.37
2022-12-09T19:06:28.451Z,5.33
2022-12-09T19:09:34.816Z,5.72
2022-12-09T19:12:47.190Z,6.00
2022-12-09T19:15:50.648Z,6.18
2022-12-09T19:18:54.033Z,5.98
2022-12-09T19:21:57.168Z,5.91
2022-12-09T19:24:59.921Z,6.22
2022-12-09T19:28:02.712Z,6.34
2022-12-09T19:31:19.308Z,6.13
2022-12-09T19:34:30.161Z,5.84
2022-12-09T19:37:32.971Z,5.66
2022-12-09T19:40:37.305Z,5.66
2022-12-09T19:43:40.196Z,5.71
2022-12-09T19:46:44.037Z,5.71
2022-12-09T19:49:46.765Z,5.61
2022-12-09T19:52:49.603Z,5.59
2022-12-09T19:55:52.367Z,5.44
2022-12-09T19:58:55.582Z,5.34
2022-12-09T20:01:58.410Z,5.40
2022-12-09T20:05:01.236Z,5.35
2022-12-09T20:08:04.329Z,5.16
2022-12-09T20:11:12.524Z,5.21
2022-12-09T20:14:15.482Z,5.90
2022-12-09T20:17:18.638Z,5.80
2022-12-09T20:20:21.385Z,5.41
2022-12-09T20:23:24.147Z,5.16
2022-12-09T20:26:30.269Z,5.18
2022-12-09T20:29:37.550Z,5.16
2022-12-09T20:32:40.958Z,4.82
2022-12-09T20:35:43.752Z,4.69
2022-12-09T20:38:55.821Z,4.63
2022-12-09T20:41:59.429Z,4.50
2022-12-09T20:45:02.345Z,4.39
2022-12-09T20:48:05.255Z,4.29
2022-12-09T20:51:10.611Z,4.11
2022-12-09T20:54:13.943Z,4.01
2022-12-09T20:57:16.942Z,3.93
2022-12-09T21:00:19.798Z,3.89
2022-12-09T21:03:23.141Z,3.85
2022-12-09T21:06:31.640Z,3.84
2022-12-09T21:09:34.379Z,3.85
2022-12-09T21:12:37.246Z,3.81
2022-12-09T21:15:40.091Z,3.92
2022-12-09T21:18:43.597Z,4.70
2022-12-09T21:21:49.465Z,6.15
2022-12-09T21:24:52.350Z,7.37
2022-12-09T21:27:56.647Z,7.89
2022-12-09T21:31:00.122Z,7.76
2022-12-09T21:34:05.719Z,7.83
2022-12-09T21:37:08.589Z,8.22
2022-12-09T21:40:12.171Z,7.66
2022-12-09T21:43:15.012Z,5.92
2022-12-09T21:46:20.846Z,5.66
2022-12-09T21:49:23.926Z,6.98
2022-12-09T21:52:27.662Z,8.02
2022-12-09T21:55:33.094Z,8.31
2022-12-09T21:58:35.883Z,7.01
2022-12-09T22:01:41.762Z,5.73
2022-12-09T22:04:44.677Z,6.19
2022-12-09T22:07:50.684Z,6.52
2022-12-09T22:10:53.832Z,6.44
2022-12-09T22:14:01.368Z,6.36
2022-12-09T22:17:04.208Z,5.97
2022-12-09T22:20:44.466Z,5.65
2022-12-09T22:23:32.220Z,5.87
2022-12-09T22:26:35.437Z,5.81
2022-12-09T22:29:38.341Z,5.47
2022-12-09T22:32:42.801Z,5.16
2022-12-09T22:35:48.220Z,4.82
2022-12-09T22:38:51.184Z,4.67
2022-12-09T22:41:53.936Z,4.75
2022-12-09T22:44:56.697Z,4.77
2022-12-09T22:47:59.482Z,5.01
2022-12-09T22:51:07.854Z,5.92
2022-12-09T22:54:11.351Z,6.85
2022-12-09T22:57:14.128Z,7.49
2022-12-09T23:00:17.601Z,7.31
2022-12-09T23:03:20.796Z,7.18
2022-12-09T23:06:25.881Z,7.67
2022-12-09T23:09:28.665Z,7.49
2022-12-09T23:12:31.529Z,5.92
2022-12-09T23:15:35.072Z,5.57
2022-12-09T23:18:38.656Z,5.62
2022-12-09T23:21:43.193Z,5.20
2022-12-09T23:24:47.769Z,4.81
2022-12-09T23:27:50.662Z,4.48
2022-12-09T23:30:53.433Z,4.36
2022-12-09T23:33:58.847Z,4.44
2022-12-09T23:37:01.719Z,4.28
2022-12-09T23:40:06.014Z,4.30
2022-12-09T23:43:09.117Z,4.28
2022-12-09T23:46:16.216Z,4.63
2022-12-09T23:49:19.324Z,5.06
2022-12-09T23:52:25.188Z,5.28
2022-12-09T23:55:27.956Z,5.18
2022-12-09T23:58:30.760Z,5.18
